Time;durP1;ratioP1;P1;durP2;ratioP2;P2;SDS_P1;SDS_P2;PMS_P1;PMS_P2;Temp;Humidity;BMP_temperature;BMP_pressure;BME280_temperature;BME280_humidity;BME280_pressure;Samples;Min_cycle;Max_cycle;Signal;HPM_P1;HPM_P2
2022/07/12 00:00:52;;;;;;;;;;;13.90;99.90;;;;;;5016173;28;19917;-73
2022/07/12 00:03:18;;;;;;;;;;;13.80;99.90;;;;;;5010171;28;20429;-73
2022/07/12 00:05:44;;;;;;;;;;;13.90;99.90;;;;;;5015201;28;19917;-73
2022/07/12 00:08:09;;;;;;;;;;;13.90;99.90;;;;;;5016164;28;19927;-73
2022/07/12 00:10:35;;;;;;;;;;;13.90;99.90;;;;;;5019474;28;19967;-73
2022/07/12 00:13:01;;;;;;;;;;;13.90;99.90;;;;;;5022345;28;20363;-72
2022/07/12 00:15:26;;;;;;;;;;;13.90;99.90;;;;;;5015685;28;19920;-73
2022/07/12 00:17:52;;;;;;;;;;;13.90;99.90;;;;;;5015899;28;19917;-73
2022/07/12 00:20:17;;;;;;;;;;;14.00;99.90;;;;;;5014003;28;20620;-73
2022/07/12 00:22:43;;;;;;;;;;;14.00;99.90;;;;;;5009166;28;19917;-73
2022/07/12 00:25:09;;;;;;;;;;;14.00;99.90;;;;;;5021996;28;19917;-73
2022/07/12 00:27:34;;;;;;;;;;;14.00;99.90;;;;;;5003099;28;19924;-72
2022/07/12 00:30:00;;;;;;;;;;;13.90;99.90;;;;;;5036533;28;20682;-72
2022/07/12 00:32:25;;;;;;;;;;;14.00;99.90;;;;;;5018944;28;19935;-73
2022/07/12 00:34:51;;;;;;;;;;;14.00;99.90;;;;;;5016112;28;19917;-73
2022/07/12 00:37:17;;;;;;;;;;;14.00;99.90;;;;;;5015129;28;19924;-73
2022/07/12 00:39:42;;;;;;;;;;;14.00;99.90;;;;;;5019111;28;20296;-73
2022/07/12 00:42:08;;;;;;;;;;;14.00;99.90;;;;;;5014560;28;19943;-73
2022/07/12 00:44:33;;;;;;;;;;;14.00;99.90;;;;;;5016837;28;20384;-72
2022/07/12 00:47:02;;;;;;;;;;;14.00;99.90;;;;;;5023489;28;19923;-73
2022/07/12 00:49:29;;;;;;;;;;;14.00;99.90;;;;;;5015747;28;19975;-73
2022/07/12 00:51:54;;;;;;;;;;;14.00;99.90;;;;;;5028361;28;19921;-73
2022/07/12 00:54:20;;;;;;;;;;;14.00;99.90;;;;;;5017321;28;20023;-73
2022/07/12 00:56:46;;;;;;;;;;;14.00;99.90;;;;;;5024663;28;21825;-73
2022/07/12 00:59:11;;;;;;;;;;;14.00;99.90;;;;;;5018266;28;20292;-73
2022/07/12 01:01:37;;;;;;;;;;;14.00;99.90;;;;;;5012783;28;20883;-73
2022/07/12 01:04:03;;;;;;;;;;;13.90;99.90;;;;;;5014107;28;19955;-73
2022/07/12 01:06:29;;;;;;;;;;;13.90;99.90;;;;;;5017446;28;19983;-73
2022/07/12 01:08:56;;;;;;;;;;;13.80;99.90;;;;;;5015764;28;20324;-73
2022/07/12 01:11:21;;;;;;;;;;;13.80;99.90;;;;;;5024835;28;19917;-73
2022/07/12 01:13:47;;;;;;;;;;;13.80;99.90;;;;;;5020186;28;19921;-73
2022/07/12 01:16:14;;;;;;;;;;;13.80;99.90;;;;;;5030490;28;19967;-73
2022/07/12 01:18:40;;;;;;;;;;;13.80;99.90;;;;;;5019948;28;19932;-73
2022/07/12 01:21:07;;;;;;;;;;;13.80;99.90;;;;;;5020920;28;20326;-73
2022/07/12 01:23:34;;;;;;;;;;;13.80;99.90;;;;;;5013730;28;19917;-73
2022/07/12 01:26:00;;;;;;;;;;;13.80;99.90;;;;;;5016634;28;20020;-73
2022/07/12 01:28:25;;;;;;;;;;;13.80;99.90;;;;;;5029248;28;19929;-73
2022/07/12 01:30:51;;;;;;;;;;;13.80;99.90;;;;;;5012147;28;20288;-73
2022/07/12 01:33:17;;;;;;;;;;;13.80;99.90;;;;;;5017023;28;21547;-72
2022/07/12 01:35:43;;;;;;;;;;;13.70;99.90;;;;;;5027870;28;20011;-72
2022/07/12 01:38:08;;;;;;;;;;;13.70;99.90;;;;;;5010617;28;19928;-72
2022/07/12 01:40:35;;;;;;;;;;;13.70;99.90;;;;;;5017150;28;19917;-73
2022/07/12 01:43:01;;;;;;;;;;;13.70;99.90;;;;;;5011038;28;20003;-73
2022/07/12 01:45:27;;;;;;;;;;;13.70;99.90;;;;;;5019211;28;20019;-73
2022/07/12 01:47:53;;;;;;;;;;;13.70;99.90;;;;;;5016856;28;20353;-73
2022/07/12 01:50:19;;;;;;;;;;;13.70;99.90;;;;;;5025223;28;19917;-72
2022/07/12 01:52:45;;;;;;;;;;;13.70;99.90;;;;;;5020244;28;20292;-73
2022/07/12 01:55:11;;;;;;;;;;;13.60;99.90;;;;;;5013603;28;20341;-73
2022/07/12 01:57:37;;;;;;;;;;;13.60;99.90;;;;;;5016806;28;19960;-72
2022/07/12 02:00:05;;;;;;;;;;;13.60;99.90;;;;;;5017280;28;20306;-73
2022/07/12 02:02:34;;;;;;;;;;;13.50;99.90;;;;;;5007068;28;19972;-72
2022/07/12 02:05:00;;;;;;;;;;;13.50;99.90;;;;;;5007030;28;19964;-73
2022/07/12 02:07:26;;;;;;;;;;;13.50;99.90;;;;;;5013971;28;19952;-73
2022/07/12 02:09:51;;;;;;;;;;;13.40;99.90;;;;;;5012737;28;20303;-73
2022/07/12 02:12:17;;;;;;;;;;;13.40;99.90;;;;;;5021843;28;19925;-73
2022/07/12 02:14:42;;;;;;;;;;;13.40;99.90;;;;;;5009510;28;19960;-73
2022/07/12 02:17:08;;;;;;;;;;;13.40;99.90;;;;;;5011669;28;19925;-73
2022/07/12 02:19:33;;;;;;;;;;;13.40;99.90;;;;;;5011808;28;19917;-72
2022/07/12 02:21:59;;;;;;;;;;;13.30;99.90;;;;;;5019911;28;19921;-73
2022/07/12 02:24:25;;;;;;;;;;;13.20;99.90;;;;;;5018060;28;20295;-73
2022/07/12 02:26:51;;;;;;;;;;;13.10;99.90;;;;;;5024521;28;19943;-72
2022/07/12 02:29:16;;;;;;;;;;;13.10;99.90;;;;;;5017511;28;19979;-73
2022/07/12 02:31:42;;;;;;;;;;;13.00;99.90;;;;;;5018960;28;19917;-73
2022/07/12 02:34:07;;;;;;;;;;;12.90;99.90;;;;;;5017346;28;19920;-73
2022/07/12 02:36:33;;;;;;;;;;;12.80;99.90;;;;;;5025889;28;20264;-73
2022/07/12 02:39:02;;;;;;;;;;;12.70;99.90;;;;;;5014849;28;20371;-73
2022/07/12 02:41:28;;;;;;;;;;;12.60;99.90;;;;;;5017543;28;19959;-73
2022/07/12 02:43:54;;;;;;;;;;;12.70;99.90;;;;;;5011101;28;19924;-73
2022/07/12 02:46:20;;;;;;;;;;;12.60;99.90;;;;;;5019368;28;19917;-73
2022/07/12 02:48:45;;;;;;;;;;;12.50;99.90;;;;;;5016076;28;20575;-72
2022/07/12 02:51:11;;;;;;;;;;;12.50;99.90;;;;;;5031660;28;20302;-73
2022/07/12 02:53:37;;;;;;;;;;;12.50;99.90;;;;;;5013952;28;20397;-73
2022/07/12 02:56:03;;;;;;;;;;;12.40;99.90;;;;;;5014715;28;20431;-72
2022/07/12 02:58:28;;;;;;;;;;;12.40;99.90;;;;;;5009449;28;20331;-72
2022/07/12 03:00:54;;;;;;;;;;;12.40;99.90;;;;;;5013899;28;20288;-73
2022/07/12 03:03:20;;;;;;;;;;;12.40;99.90;;;;;;5008226;28;19917;-72
2022/07/12 03:05:45;;;;;;;;;;;12.50;99.90;;;;;;5021074;28;20349;-72
2022/07/12 03:08:11;;;;;;;;;;;12.50;99.90;;;;;;5020347;28;20445;-72
2022/07/12 03:10:37;;;;;;;;;;;12.50;99.90;;;;;;5027755;28;20020;-73
2022/07/12 03:13:03;;;;;;;;;;;12.40;99.90;;;;;;5019532;28;20289;-72
2022/07/12 03:15:29;;;;;;;;;;;12.40;99.90;;;;;;5019041;28;19928;-73
2022/07/12 03:17:54;;;;;;;;;;;12.40;99.90;;;;;;5021791;28;20055;-73
2022/07/12 03:20:21;;;;;;;;;;;12.40;99.90;;;;;;5016520;28;20441;-73
2022/07/12 03:22:48;;;;;;;;;;;12.40;99.90;;;;;;5022184;28;19945;-73
2022/07/12 03:25:14;;;;;;;;;;;12.30;99.90;;;;;;4998380;28;19921;-73
2022/07/12 03:27:40;;;;;;;;;;;12.30;99.90;;;;;;5020534;28;19924;-73
2022/07/12 03:30:05;;;;;;;;;;;12.20;99.90;;;;;;5020757;28;20410;-73
2022/07/12 03:32:31;;;;;;;;;;;12.20;99.90;;;;;;5018769;28;19924;-73
2022/07/12 03:34:56;;;;;;;;;;;12.20;99.90;;;;;;5023644;28;20393;-73
2022/07/12 03:37:22;;;;;;;;;;;12.20;99.90;;;;;;5018766;28;21340;-73
2022/07/12 03:39:48;;;;;;;;;;;12.20;99.90;;;;;;5017485;28;19924;-72
2022/07/12 03:42:13;;;;;;;;;;;12.20;99.90;;;;;;5016602;28;19924;-73
2022/07/12 03:44:39;;;;;;;;;;;12.20;99.90;;;;;;5017729;28;20394;-73
2022/07/12 03:47:04;;;;;;;;;;;12.30;99.90;;;;;;5027440;28;20397;-73
2022/07/12 03:49:30;;;;;;;;;;;12.30;99.90;;;;;;5015251;28;20368;-72
2022/07/12 03:51:56;;;;;;;;;;;12.30;99.90;;;;;;5017667;28;20283;-73
2022/07/12 03:54:21;;;;;;;;;;;12.30;99.90;;;;;;5022967;28;19940;-73
2022/07/12 03:59:31;;;;;;;;;;;12.30;99.90;;;;;;5021758;28;20340;-73
2022/07/12 04:01:57;;;;;;;;;;;12.30;99.90;;;;;;5018992;28;20008;-73
2022/07/12 04:04:22;;;;;;;;;;;12.30;99.90;;;;;;5021364;28;19949;-72
2022/07/12 04:06:48;;;;;;;;;;;12.30;99.90;;;;;;5019488;28;19917;-73
2022/07/12 04:09:13;;;;;;;;;;;12.30;99.90;;;;;;5029368;28;19975;-73
2022/07/12 04:11:39;;;;;;;;;;;12.20;99.90;;;;;;5015091;28;19925;-73
2022/07/12 04:14:05;;;;;;;;;;;12.20;99.90;;;;;;5021110;28;20365;-73
2022/07/12 04:16:30;;;;;;;;;;;12.20;99.90;;;;;;5019030;28;20011;-73
2022/07/12 04:18:56;;;;;;;;;;;12.20;99.90;;;;;;5020775;28;19925;-73
2022/07/12 04:21:22;;;;;;;;;;;12.20;99.90;;;;;;5015345;28;19917;-73
2022/07/12 04:23:48;;;;;;;;;;;12.10;99.90;;;;;;5020959;28;19917;-73
2022/07/12 04:26:13;;;;;;;;;;;12.10;99.90;;;;;;5017637;28;19925;-72
2022/07/12 04:28:39;;;;;;;;;;;12.20;99.90;;;;;;5030890;28;19939;-73
2022/07/12 04:31:06;;;;;;;;;;;12.20;99.90;;;;;;5030568;28;19956;-73
2022/07/12 04:33:32;;;;;;;;;;;12.20;99.90;;;;;;5026004;28;20004;-73
2022/07/12 04:35:58;;;;;;;;;;;12.30;99.90;;;;;;5009193;28;20414;-73
2022/07/12 04:38:23;;;;;;;;;;;12.30;99.90;;;;;;5021536;28;20008;-73
2022/07/12 04:40:49;;;;;;;;;;;12.40;99.90;;;;;;5019602;28;20561;-73
2022/07/12 04:43:14;;;;;;;;;;;12.40;99.90;;;;;;5020949;28;19921;-73
2022/07/12 04:45:43;;;;;;;;;;;12.40;99.90;;;;;;5018047;28;19967;-73
2022/07/12 04:48:09;;;;;;;;;;;12.50;99.90;;;;;;5026482;28;19924;-73
2022/07/12 04:50:35;;;;;;;;;;;12.40;99.90;;;;;;5009760;28;19917;-72
2022/07/12 04:53:01;;;;;;;;;;;12.40;99.90;;;;;;5018056;28;20343;-73
2022/07/12 04:55:27;;;;;;;;;;;12.50;99.90;;;;;;5027775;28;19980;-72
2022/07/12 04:57:52;;;;;;;;;;;12.50;99.90;;;;;;5022152;28;20023;-73
2022/07/12 05:00:18;;;;;;;;;;;12.50;99.90;;;;;;5018163;28;19917;-73
2022/07/12 05:02:44;;;;;;;;;;;12.60;99.90;;;;;;5022921;28;20323;-73
2022/07/12 05:05:09;;;;;;;;;;;12.60;99.90;;;;;;5016146;28;20542;-73
2022/07/12 05:07:35;;;;;;;;;;;12.70;99.90;;;;;;5028596;28;19925;-73
2022/07/12 05:10:00;;;;;;;;;;;12.80;99.90;;;;;;5015583;28;19988;-73
2022/07/12 05:12:26;;;;;;;;;;;12.80;99.90;;;;;;5021470;28;19924;-73
2022/07/12 05:14:52;;;;;;;;;;;12.90;99.90;;;;;;5011397;28;19917;-73
2022/07/12 05:17:17;;;;;;;;;;;13.00;99.90;;;;;;5012767;28;19924;-73
2022/07/12 05:19:43;;;;;;;;;;;13.00;99.90;;;;;;5013382;28;19917;-73
2022/07/12 05:22:09;;;;;;;;;;;13.10;99.90;;;;;;5029087;28;19920;-73
2022/07/12 05:24:35;;;;;;;;;;;13.20;99.90;;;;;;5010672;28;19980;-73
2022/07/12 05:27:00;;;;;;;;;;;13.30;99.90;;;;;;5011828;28;19917;-73
2022/07/12 05:29:26;;;;;;;;;;;13.40;99.90;;;;;;5027916;28;19989;-73
2022/07/12 05:31:54;;;;;;;;;;;13.60;99.90;;;;;;5007698;28;19925;-73
2022/07/12 05:34:20;;;;;;;;;;;13.70;99.90;;;;;;5019566;28;19924;-73
2022/07/12 05:36:45;;;;;;;;;;;13.80;99.90;;;;;;5020935;28;19925;-73
2022/07/12 05:39:11;;;;;;;;;;;14.00;99.90;;;;;;5015179;28;19995;-73
2022/07/12 05:41:37;;;;;;;;;;;14.10;99.90;;;;;;5011904;28;19992;-72
2022/07/12 05:44:03;;;;;;;;;;;14.20;99.90;;;;;;5012001;28;19917;-73
2022/07/12 05:46:28;;;;;;;;;;;14.40;99.90;;;;;;5014570;28;19917;-72
2022/07/12 05:48:54;;;;;;;;;;;14.60;99.90;;;;;;5025199;28;19929;-73
2022/07/12 05:54:04;;;;;;;;;;;14.90;99.90;;;;;;5021928;28;19917;-73
2022/07/12 05:56:30;;;;;;;;;;;15.10;99.90;;;;;;5019578;28;19923;-73
2022/07/12 05:58:55;;;;;;;;;;;15.30;99.90;;;;;;5014837;28;20004;-73
2022/07/12 06:01:21;;;;;;;;;;;15.50;99.90;;;;;;5010151;28;19925;-72
2022/07/12 06:03:47;;;;;;;;;;;15.70;99.90;;;;;;5008970;28;20417;-72
2022/07/12 06:06:12;;;;;;;;;;;15.90;99.90;;;;;;5019668;28;19936;-72
2022/07/12 06:08:39;;;;;;;;;;;16.50;99.90;;;;;;5018768;28;19921;-71
2022/07/12 06:11:04;;;;;;;;;;;16.10;99.90;;;;;;5016594;28;19935;-71
2022/07/12 06:13:30;;;;;;;;;;;16.20;99.90;;;;;;5016759;28;19917;-71
2022/07/12 06:15:55;;;;;;;;;;;16.30;99.90;;;;;;5011207;28;19924;-72
2022/07/12 06:18:21;;;;;;;;;;;16.40;99.90;;;;;;5026174;28;20007;-72
2022/07/12 06:20:47;;;;;;;;;;;16.50;99.90;;;;;;4996004;28;19929;-72
2022/07/12 06:23:13;;;;;;;;;;;16.50;99.90;;;;;;5007011;28;19932;-72
2022/07/12 06:25:39;;;;;;;;;;;16.60;99.90;;;;;;5008880;28;19916;-72
2022/07/12 06:28:05;;;;;;;;;;;16.70;99.90;;;;;;5008200;28;19921;-72
2022/07/12 06:30:31;;;;;;;;;;;16.70;99.90;;;;;;5008997;28;20003;-72
2022/07/12 06:32:56;;;;;;;;;;;16.80;99.90;;;;;;5012032;28;19925;-72
2022/07/12 06:35:22;;;;;;;;;;;16.90;99.90;;;;;;5012967;28;19921;-72
2022/07/12 06:37:47;;;;;;;;;;;17.00;99.90;;;;;;5023376;28;19924;-72
2022/07/12 06:40:16;;;;;;;;;;;17.00;99.90;;;;;;5005524;28;19917;-72
2022/07/12 06:42:43;;;;;;;;;;;17.00;99.90;;;;;;5013450;28;19921;-72
2022/07/12 06:45:09;;;;;;;;;;;17.20;99.90;;;;;;5009759;28;19992;-73
2022/07/12 06:47:35;;;;;;;;;;;17.20;99.90;;;;;;4994974;28;19924;-72
2022/07/12 06:50:00;;;;;;;;;;;17.00;99.90;;;;;;5010077;28;19921;-72
2022/07/12 06:52:26;;;;;;;;;;;17.40;99.90;;;;;;5016562;28;20411;-72
2022/07/12 06:54:52;;;;;;;;;;;17.40;99.90;;;;;;5016519;28;19956;-73
2022/07/12 06:57:17;;;;;;;;;;;17.40;99.90;;;;;;5030542;28;19924;-72
2022/07/12 06:59:43;;;;;;;;;;;17.60;99.90;;;;;;5027984;28;19924;-72
2022/07/12 07:02:08;;;;;;;;;;;17.70;99.90;;;;;;5010594;28;19924;-72
2022/07/12 07:04:34;;;;;;;;;;;17.70;99.90;;;;;;5028891;28;19921;-72
2022/07/12 07:07:00;;;;;;;;;;;17.80;99.90;;;;;;5017226;28;19920;-72
2022/07/12 07:09:26;;;;;;;;;;;18.00;99.90;;;;;;5021571;28;19975;-72
2022/07/12 07:11:53;;;;;;;;;;;18.10;99.90;;;;;;5028721;28;19917;-72
2022/07/12 07:14:18;;;;;;;;;;;18.10;99.90;;;;;;5018695;28;20421;-72
2022/07/12 07:16:44;;;;;;;;;;;18.20;99.90;;;;;;5012064;28;19920;-72
2022/07/12 07:19:10;;;;;;;;;;;18.40;99.90;;;;;;5016803;28;19947;-73
2022/07/12 07:21:35;;;;;;;;;;;18.40;99.90;;;;;;5022502;28;19917;-73
2022/07/12 07:24:01;;;;;;;;;;;18.60;99.90;;;;;;5015874;28;20441;-72
2022/07/12 07:26:27;;;;;;;;;;;18.70;99.90;;;;;;5010361;28;19925;-73
2022/07/12 07:31:37;;;;;;;;;;;19.10;99.90;;;;;;5016414;28;20391;-73
2022/07/12 07:34:03;;;;;;;;;;;19.30;99.90;;;;;;5028178;28;19945;-73
2022/07/12 07:36:28;;;;;;;;;;;19.40;99.90;;;;;;5020177;28;19943;-73
2022/07/12 07:38:54;;;;;;;;;;;19.60;99.90;;;;;;5025173;28;20371;-73
2022/07/12 07:41:20;;;;;;;;;;;19.70;99.90;;;;;;5028989;28;19917;-73
2022/07/12 07:43:45;;;;;;;;;;;19.90;99.90;;;;;;5012957;28;19948;-73
2022/07/12 07:46:11;;;;;;;;;;;20.10;99.90;;;;;;5020147;28;19921;-73
2022/07/12 07:48:36;;;;;;;;;;;20.10;99.90;;;;;;5022900;28;19925;-73
2022/07/12 07:51:02;;;;;;;;;;;20.20;99.90;;;;;;5011973;28;19978;-73
2022/07/12 07:53:28;;;;;;;;;;;20.30;99.90;;;;;;5024888;28;19917;-73
2022/07/12 07:55:53;;;;;;;;;;;20.40;99.90;;;;;;5030490;28;20292;-73
2022/07/12 07:58:20;;;;;;;;;;;20.40;99.90;;;;;;5022643;28;19917;-73
2022/07/12 08:00:46;;;;;;;;;;;20.50;99.90;;;;;;5032401;28;19927;-73
2022/07/12 08:03:12;;;;;;;;;;;20.70;99.90;;;;;;5017627;28;19999;-73
2022/07/12 08:05:38;;;;;;;;;;;20.80;99.90;;;;;;5018691;28;20391;-73
2022/07/12 08:08:04;;;;;;;;;;;20.90;99.90;;;;;;5017651;28;20433;-74
2022/07/12 08:10:29;;;;;;;;;;;21.00;99.90;;;;;;5023169;28;19921;-73
2022/07/12 08:12:55;;;;;;;;;;;21.10;99.90;;;;;;5026690;28;20034;-73
2022/07/12 08:15:20;;;;;;;;;;;21.10;99.90;;;;;;5013812;28;19917;-73
2022/07/12 08:17:46;;;;;;;;;;;21.30;99.90;;;;;;5034079;28;19921;-73
2022/07/12 08:20:11;;;;;;;;;;;21.50;99.90;;;;;;5021041;28;19917;-73
2022/07/12 08:22:44;;;;;;;;;;;21.60;99.90;;;;;;5016274;28;19928;-74
2022/07/12 08:25:10;;;;;;;;;;;21.80;99.90;;;;;;5034524;28;19924;-73
2022/07/12 08:27:36;;;;;;;;;;;21.90;99.90;;;;;;5030563;28;19925;-74
2022/07/12 08:30:01;;;;;;;;;;;21.90;99.90;;;;;;4996943;28;20411;-73
2022/07/12 08:32:27;;;;;;;;;;;22.00;99.90;;;;;;5007477;28;20395;-73
2022/07/12 08:34:52;;;;;;;;;;;22.00;99.90;;;;;;5019473;28;20394;-73
2022/07/12 08:37:18;;;;;;;;;;;22.20;99.90;;;;;;5030603;28;19924;-74
2022/07/12 08:39:43;;;;;;;;;;;22.20;99.90;;;;;;5014303;28;19921;-73
2022/07/12 08:42:13;;;;;;;;;;;22.20;99.90;;;;;;5019576;28;19923;-73
2022/07/12 08:44:39;;;;;;;;;;;22.40;99.90;;;;;;5003178;28;21320;-73
2022/07/12 08:47:07;;;;;;;;;;;22.30;99.90;;;;;;5026124;28;19921;-74
2022/07/12 08:49:32;;;;;;;;;;;22.50;99.90;;;;;;5010068;28;19929;-73
2022/07/12 08:51:58;;;;;;;;;;;22.50;99.90;;;;;;5027519;28;20021;-73
2022/07/12 08:54:24;;;;;;;;;;;22.60;99.90;;;;;;5012861;28;19920;-73
2022/07/12 08:56:50;;;;;;;;;;;22.40;99.90;;;;;;5022941;28;19917;-74
2022/07/12 08:59:16;;;;;;;;;;;22.40;99.90;;;;;;5022152;28;20360;-73
2022/07/12 09:01:42;;;;;;;;;;;22.60;99.90;;;;;;5023004;28;20019;-75
2022/07/12 09:04:15;;;;;;;;;;;22.60;99.90;;;;;;5008525;28;19925;-74
2022/07/12 09:06:40;;;;;;;;;;;22.80;99.90;;;;;;5006880;28;20307;-73
2022/07/12 09:09:08;;;;;;;;;;;23.00;99.90;;;;;;5004775;28;19927;-73
2022/07/12 09:11:37;;;;;;;;;;;23.20;99.90;;;;;;5014775;28;20302;-72
2022/07/12 09:14:03;;;;;;;;;;;23.00;99.90;;;;;;5012363;28;20338;-74
2022/07/12 09:16:29;;;;;;;;;;;23.20;99.90;;;;;;5011222;28;19920;-73
2022/07/12 09:19:13;;;;;;;;;;;23.40;99.90;;;;;;5008293;28;19925;-73
2022/07/12 09:21:45;;;;;;;;;;;23.50;99.90;;;;;;5014281;28;19921;-73
2022/07/12 09:24:11;;;;;;;;;;;23.80;99.90;;;;;;5019964;28;20299;-73
2022/07/12 09:26:37;;;;;;;;;;;23.70;99.90;;;;;;5014004;28;19921;-73
2022/07/12 09:29:06;;;;;;;;;;;23.90;99.90;;;;;;5017137;28;20380;-73
2022/07/12 09:31:39;;;;;;;;;;;24.00;99.90;;;;;;5013339;28;20449;-73
2022/07/12 09:36:56;;;;;;;;;;;24.10;99.90;;;;;;5015276;28;20375;-73
2022/07/12 09:39:22;;;;;;;;;;;24.00;99.90;;;;;;5019299;28;19923;-73
2022/07/12 09:41:48;;;;;;;;;;;23.90;99.90;;;;;;5011031;28;19992;-72
2022/07/12 09:44:14;;;;;;;;;;;24.00;99.90;;;;;;5011991;28;20355;-73
2022/07/12 09:46:42;;;;;;;;;;;24.10;99.90;;;;;;5011804;28;20303;-73
2022/07/12 09:49:08;;;;;;;;;;;24.30;99.90;;;;;;5010383;28;19932;-73
2022/07/12 09:51:34;;;;;;;;;;;24.50;99.90;;;;;;5017414;28;19917;-73
2022/07/12 09:54:01;;;;;;;;;;;24.60;99.90;;;;;;5014070;28;19916;-73
2022/07/12 09:56:28;;;;;;;;;;;24.50;99.90;;;;;;5014357;28;19927;-73
2022/07/12 09:58:54;;;;;;;;;;;24.60;99.90;;;;;;5002315;28;19924;-73
2022/07/12 10:01:20;;;;;;;;;;;24.40;99.90;;;;;;5026926;28;20051;-73
2022/07/12 10:03:46;;;;;;;;;;;24.70;99.90;;;;;;5006093;28;19925;-73
2022/07/12 10:06:13;;;;;;;;;;;24.60;99.90;;;;;;5011607;28;20028;-73
2022/07/12 10:08:40;;;;;;;;;;;24.90;99.90;;;;;;5010259;28;19935;-73
2022/07/12 10:11:06;;;;;;;;;;;25.00;99.90;;;;;;5005665;28;19959;-73
2022/07/12 10:13:32;;;;;;;;;;;25.20;99.90;;;;;;4984541;28;19965;-73
2022/07/12 10:16:00;;;;;;;;;;;25.20;99.90;;;;;;5011047;28;19916;-73
2022/07/12 10:18:26;;;;;;;;;;;25.30;99.90;;;;;;5028972;28;19917;-73
2022/07/12 10:20:51;;;;;;;;;;;25.10;99.90;;;;;;5011267;28;20295;-72
2022/07/12 10:23:20;;;;;;;;;;;25.40;99.90;;;;;;5013652;28;19996;-72
2022/07/12 10:25:49;;;;;;;;;;;25.70;99.90;;;;;;5008689;28;19921;-73
2022/07/12 10:28:15;;;;;;;;;;;25.90;99.90;;;;;;5015397;28;19923;-73
2022/07/12 10:30:47;;;;;;;;;;;25.90;99.90;;;;;;5008326;28;19916;-73
2022/07/12 10:33:17;;;;;;;;;;;25.60;99.90;;;;;;5008222;28;19925;-73
2022/07/12 10:35:59;;;;;;;;;;;25.70;99.90;;;;;;5007642;28;19917;-73
2022/07/12 10:38:25;;;;;;;;;;;25.80;99.90;;;;;;5010679;28;19917;-73
2022/07/12 10:40:51;;;;;;;;;;;25.90;99.90;;;;;;5007578;28;20304;-74
2022/07/12 10:44:04;;;;;;;;;;;26.10;99.90;;;;;;5012995;28;19963;-73
2022/07/12 10:46:14;;;;;;;;;;;26.20;99.90;;;;;;5020512;28;19924;-73
2022/07/12 10:48:40;;;;;;;;;;;26.10;99.90;;;;;;5014359;28;20397;-74
2022/07/12 10:51:12;;;;;;;;;;;26.20;99.90;;;;;;5013481;28;19921;-73
2022/07/12 10:53:40;;;;;;;;;;;26.10;99.90;;;;;;5011431;28;19921;-73
2022/07/12 10:56:14;;;;;;;;;;;26.30;99.90;;;;;;5013892;28;19967;-73
2022/07/12 10:58:41;;;;;;;;;;;26.30;99.90;;;;;;5023055;28;19917;-73
2022/07/12 11:01:08;;;;;;;;;;;26.30;99.90;;;;;;5012090;28;19925;-73
2022/07/12 11:03:41;;;;;;;;;;;26.50;99.90;;;;;;5008793;28;19917;-73
2022/07/12 11:06:11;;;;;;;;;;;26.40;99.90;;;;;;5014962;28;19921;-73
2022/07/12 11:08:46;;;;;;;;;;;26.40;99.90;;;;;;5014261;28;19970;-73
2022/07/12 11:11:11;;;;;;;;;;;26.10;99.90;;;;;;5027150;28;19921;-73
2022/07/12 11:13:37;;;;;;;;;;;26.00;99.90;;;;;;5009910;28;19917;-73
2022/07/12 11:16:03;;;;;;;;;;;25.90;99.90;;;;;;5028574;28;19952;-73
2022/07/12 11:18:29;;;;;;;;;;;26.10;99.90;;;;;;5025973;28;19917;-73
2022/07/12 11:20:58;;;;;;;;;;;26.30;99.90;;;;;;5016082;28;19921;-73
2022/07/12 11:23:25;;;;;;;;;;;26.60;99.90;;;;;;5035115;28;19917;-73
2022/07/12 11:25:50;;;;;;;;;;;26.90;99.90;;;;;;5009802;28;19921;-73
2022/07/12 11:28:18;;;;;;;;;;;27.10;99.90;;;;;;5022117;28;19925;-73
2022/07/12 11:30:48;;;;;;;;;;;27.30;99.90;;;;;;5012281;28;21737;-73
2022/07/12 11:33:13;;;;;;;;;;;27.40;99.90;;;;;;5023003;28;19923;-73
2022/07/12 11:35:42;;;;;;;;;;;27.40;98.40;;;;;;5016223;28;19925;-72
2022/07/12 11:38:08;;;;;;;;;;;27.40;97.90;;;;;;5031931;28;19963;-72
2022/07/12 11:40:34;;;;;;;;;;;26.90;96.10;;;;;;5010819;28;19956;-73
2022/07/12 11:43:00;;;;;;;;;;;26.70;99.20;;;;;;5015479;28;19921;-73
2022/07/12 11:45:27;;;;;;;;;;;26.50;98.00;;;;;;5020481;28;20016;-73
2022/07/12 11:47:52;;;;;;;;;;;26.30;96.20;;;;;;5031928;28;20331;-73
2022/07/12 11:50:19;;;;;;;;;;;26.30;99.90;;;;;;5016262;28;19921;-73
2022/07/12 11:52:44;;;;;;;;;;;26.40;99.90;;;;;;5019479;28;19928;-73
2022/07/12 11:55:10;;;;;;;;;;;26.60;99.90;;;;;;5034895;28;19916;-72
2022/07/12 11:57:35;;;;;;;;;;;26.80;99.90;;;;;;5031371;28;19923;-72
2022/07/12 12:00:17;;;;;;;;;;;27.00;99.90;;;;;;5022079;28;20558;-73
2022/07/12 12:02:43;;;;;;;;;;;27.30;99.60;;;;;;5014813;28;20364;-72
2022/07/12 12:05:09;;;;;;;;;;;27.20;94.30;;;;;;5018370;28;19931;-72
2022/07/12 12:07:34;;;;;;;;;;;27.30;87.80;;;;;;5022574;28;20372;-72
2022/07/12 12:10:00;;;;;;;;;;;27.40;98.10;;;;;;5024623;28;19921;-72
2022/07/12 12:12:27;;;;;;;;;;;27.70;94.60;;;;;;5021176;28;19924;-72
2022/07/12 12:14:53;;;;;;;;;;;27.80;94.90;;;;;;5029400;28;20299;-74
2022/07/12 12:17:18;;;;;;;;;;;27.60;95.60;;;;;;5016879;28;19921;-74
2022/07/12 12:19:44;;;;;;;;;;;27.60;96.90;;;;;;5012464;28;19924;-74
2022/07/12 12:22:29;;;;;;;;;;;27.80;93.70;;;;;;5014619;28;19916;-74
2022/07/12 12:25:01;;;;;;;;;;;27.60;90.10;;;;;;5016342;28;20331;-74
2022/07/12 12:27:27;;;;;;;;;;;27.70;96.30;;;;;;5004461;28;20499;-73
2022/07/12 12:29:52;;;;;;;;;;;27.80;97.60;;;;;;5014464;28;20024;-73
2022/07/12 12:32:18;;;;;;;;;;;28.00;99.30;;;;;;5010150;28;20422;-74
2022/07/12 12:35:02;;;;;;;;;;;28.20;94.50;;;;;;5014518;28;19924;-73
2022/07/12 12:37:28;;;;;;;;;;;28.40;90.90;;;;;;5014063;28;20030;-74
2022/07/12 12:39:53;;;;;;;;;;;28.60;97.50;;;;;;5025678;28;19959;-74
2022/07/12 12:42:25;;;;;;;;;;;28.80;90.10;;;;;;5012360;28;19923;-74
2022/07/12 12:44:51;;;;;;;;;;;29.00;91.30;;;;;;4997244;28;20502;-74
2022/07/12 12:47:33;;;;;;;;;;;29.10;91.70;;;;;;5019201;28;19917;-74
2022/07/12 12:50:02;;;;;;;;;;;29.10;91.70;;;;;;5026084;28;19921;-74
2022/07/12 12:52:31;;;;;;;;;;;29.20;85.80;;;;;;5015397;28;20044;-74
2022/07/12 12:54:57;;;;;;;;;;;29.20;77.40;;;;;;5007735;28;19959;-74
2022/07/12 12:57:24;;;;;;;;;;;29.40;85.20;;;;;;5026442;28;19963;-74
2022/07/12 12:59:49;;;;;;;;;;;29.50;70.80;;;;;;5022668;28;19927;-73
2022/07/12 13:02:15;;;;;;;;;;;29.00;69.00;;;;;;5017978;28;19917;-74
2022/07/12 13:04:41;;;;;;;;;;;29.00;74.10;;;;;;5012513;28;20061;-74
2022/07/12 13:07:06;;;;;;;;;;;29.10;85.60;;;;;;5010385;28;19917;-74
2022/07/12 13:09:32;;;;;;;;;;;29.30;82.80;;;;;;5009989;28;19921;-74
2022/07/12 13:11:58;;;;;;;;;;;29.50;80.40;;;;;;5018970;28;20399;-74
2022/07/12 13:14:24;;;;;;;;;;;29.30;78.80;;;;;;5019255;28;19917;-74
2022/07/12 13:16:49;;;;;;;;;;;29.50;80.80;;;;;;5018478;28;20487;-74
2022/07/12 13:19:15;;;;;;;;;;;29.60;78.50;;;;;;5017704;28;19917;-74
2022/07/12 13:21:40;;;;;;;;;;;29.60;69.30;;;;;;5012364;28;20365;-74
2022/07/12 13:24:06;;;;;;;;;;;29.80;74.00;;;;;;5013788;28;20395;-74
2022/07/12 13:26:32;;;;;;;;;;;30.00;76.20;;;;;;5014271;28;19924;-73
2022/07/12 13:28:57;;;;;;;;;;;30.00;66.70;;;;;;5016775;28;20446;-73
2022/07/12 13:31:23;;;;;;;;;;;29.40;66.10;;;;;;5023192;28;20414;-73
2022/07/12 13:33:49;;;;;;;;;;;29.00;66.50;;;;;;5032805;28;20334;-73
2022/07/12 13:36:14;;;;;;;;;;;28.90;67.00;;;;;;5018914;28;20509;-73
2022/07/12 13:38:40;;;;;;;;;;;28.90;71.70;;;;;;5018929;28;20013;-73
2022/07/12 13:41:06;;;;;;;;;;;28.90;76.70;;;;;;5015117;28;19917;-73
2022/07/12 13:43:32;;;;;;;;;;;29.10;72.90;;;;;;5015721;28;19917;-73
2022/07/12 13:45:58;;;;;;;;;;;29.20;69.40;;;;;;5018167;28;19963;-73
2022/07/12 13:48:23;;;;;;;;;;;29.20;73.30;;;;;;5018413;28;20382;-73
2022/07/12 13:50:49;;;;;;;;;;;29.30;75.70;;;;;;5020200;28;19917;-73
2022/07/12 13:53:15;;;;;;;;;;;29.30;78.80;;;;;;5013670;28;20338;-73
2022/07/12 13:55:44;;;;;;;;;;;29.30;83.90;;;;;;5017098;28;19924;-73
2022/07/12 13:58:10;;;;;;;;;;;29.30;77.30;;;;;;5008861;28;19921;-73
2022/07/12 14:00:36;;;;;;;;;;;29.50;74.00;;;;;;5014888;28;19968;-73
2022/07/12 14:03:01;;;;;;;;;;;29.40;77.70;;;;;;5023990;28;19991;-73
2022/07/12 14:05:28;;;;;;;;;;;29.40;79.10;;;;;;5017518;28;19924;-73
2022/07/12 14:07:53;;;;;;;;;;;29.50;76.20;;;;;;5025233;28;19917;-73
2022/07/12 14:10:19;;;;;;;;;;;29.30;73.10;;;;;;5012063;28;19921;-73
2022/07/12 14:12:45;;;;;;;;;;;29.20;75.60;;;;;;5011915;28;19975;-73
2022/07/12 14:17:40;;;;;;;;;;;28.70;73.40;;;;;;5008281;28;20334;-73
2022/07/12 14:20:07;;;;;;;;;;;28.70;71.90;;;;;;5008947;28;19944;-73
2022/07/12 14:22:33;;;;;;;;;;;28.60;67.60;;;;;;5008420;28;19923;-73
2022/07/12 14:24:59;;;;;;;;;;;28.50;69.30;;;;;;5031165;28;20507;-73